KPSF

Pittsfield Municipal Airport

Pittsfield, Massachusetts, USA
METAR KPSF 212254Z AUTO 01006KT 10SM FEW048 23/12 A2983 RMK AO2 SLP081 T02280122
Observed Flight Rules
Jun-21 @ 22:54 UTC (an hour ago) Visual Flight Rules
Wind Visibility Clouds
10° at 6 knots 10 miles
  • Few at 4,800' AGL
Temperatures Readings
Current 23°C / 73°F
Dewpoint 12°C / 54°F
Humidity 50%
Altimeter 29.83" Hg
Pressure 1008.1 hPa
Elevation 355
METAR KPSF 212254Z AUTO 01006KT 10SM FEW048 23/12 A2983 RMK AO2 SLP081 T02280122
Observed Flight Rules
Jun-21 @ 22:54 UTC
(an hour ago)
VFR
Wind Visibility
10° at 6 knots 10 miles
Clouds
  • Few at 4,800' AGL
Temperature Dewpoint
23°C / 73°F 12°C / 54°F
Humidity Altimeter Pressure
50% 29.83" Hg 1008.1 hPa